Livermore, Iowa
Current Conditions -  °F | °C
As of 1:15 AM on Thursday 23 Oct 2014 (Local Time) from KAXA Reporting Station
Overcast Overcast  
Wind Chill: 54°   Ceiling: 7500
Heat Index: 54°   Visibility: 10mi
Dew Point: 52°   Wind: 10mph
Humidity: 94%   Direction: 180°S
Pressure: 30.04"   Gusts: NA
Location:  42.87°N, 94.19°W
Report Text: KAXA 230615Z AUTO 18009KT 10SM FEW029 BKN075 OVC090 12/11 A3004 RMK AO2
Loading
Personal Weather Stations






























Interactive Weather Map
Tropical Storm Tracking
New forecast layout! Learn more

10-Day Weather Forecast

Advertisements
Track Severe Weather on mobile